createdAt,value
2019-02-17T00:00:03.321Z,0.09
2019-02-17T00:02:33.821Z,0.12
2019-02-17T00:05:04.801Z,0.10
2019-02-17T00:07:35.248Z,0.03
2019-02-17T00:10:06.225Z,0.02
2019-02-17T00:12:36.699Z,0.04
2019-02-17T00:15:07.600Z,0.03
2019-02-17T00:17:38.109Z,0.00
2019-02-17T00:20:08.490Z,0.02
2019-02-17T00:22:38.890Z,-0.03
2019-02-17T00:25:09.404Z,-0.09
2019-02-17T00:27:39.854Z,-0.09
2019-02-17T00:30:11.743Z,-0.14
2019-02-17T00:32:42.185Z,-0.22
2019-02-17T00:35:12.577Z,-0.26
2019-02-17T00:37:43.127Z,-0.25
2019-02-17T00:40:13.637Z,-0.26
2019-02-17T00:42:44.273Z,-0.24
2019-02-17T00:45:14.643Z,-0.25
2019-02-17T00:47:45.097Z,-0.27
2019-02-17T00:50:15.536Z,-0.31
2019-02-17T00:52:46.027Z,-0.35
2019-02-17T00:55:16.497Z,-0.40
2019-02-17T00:57:46.987Z,-0.42
2019-02-17T01:00:17.681Z,-0.43
2019-02-17T01:02:48.164Z,-0.48
2019-02-17T01:05:20.397Z,-0.40
2019-02-17T01:07:50.894Z,-0.34
2019-02-17T01:10:21.278Z,-0.24
2019-02-17T01:12:51.656Z,-0.35
2019-02-17T01:15:22.153Z,-0.31
2019-02-17T01:17:52.640Z,-0.34
2019-02-17T01:20:22.935Z,-0.38
2019-02-17T01:22:53.375Z,-0.43
2019-02-17T01:25:23.791Z,-0.50
2019-02-17T01:27:54.131Z,-0.55
2019-02-17T01:30:24.604Z,-0.57
2019-02-17T01:32:55.167Z,-0.57
2019-02-17T01:35:25.748Z,-0.58
2019-02-17T01:37:58.259Z,-0.60
2019-02-17T01:40:28.532Z,-0.61
2019-02-17T01:42:59.042Z,-0.59
2019-02-17T01:45:29.518Z,-0.62
2019-02-17T01:47:59.897Z,-0.65
2019-02-17T01:50:30.357Z,-0.67
2019-02-17T01:53:00.834Z,-0.65
2019-02-17T01:55:31.284Z,-0.70
2019-02-17T01:58:01.857Z,-0.74
2019-02-17T02:00:32.521Z,-0.77
2019-02-17T02:03:02.959Z,-0.78
2019-02-17T02:05:33.424Z,-0.81
2019-02-17T02:08:03.832Z,-0.79
2019-02-17T02:10:34.320Z,-0.83
2019-02-17T02:13:04.787Z,-0.87
2019-02-17T02:15:35.267Z,-0.88
2019-02-17T02:18:05.727Z,-0.88
2019-02-17T02:20:36.236Z,-0.90
2019-02-17T02:23:06.792Z,-0.90
2019-02-17T02:25:37.482Z,-0.92
2019-02-17T02:28:07.926Z,-0.93
2019-02-17T02:30:38.355Z,-1.00
2019-02-17T02:33:08.887Z,-1.04
2019-02-17T02:35:39.393Z,-1.04
2019-02-17T02:38:09.853Z,-1.02
2019-02-17T02:40:40.308Z,-1.00
2019-02-17T02:43:10.759Z,-1.05
2019-02-17T02:45:41.279Z,-1.08
2019-02-17T02:48:11.757Z,-1.11
2019-02-17T02:50:42.188Z,-1.10
2019-02-17T02:53:12.627Z,-1.13
2019-02-17T02:55:43.053Z,-1.20
2019-02-17T02:58:13.602Z,-1.21
2019-02-17T03:00:44.036Z,-1.21
2019-02-17T03:03:14.465Z,-1.17
2019-02-17T03:06:03.816Z,-1.17
2019-02-17T03:08:34.299Z,-1.19
2019-02-17T03:11:04.763Z,-1.21
2019-02-17T03:13:35.318Z,-1.23
2019-02-17T03:16:05.801Z,-1.30
2019-02-17T03:18:36.375Z,-1.31
2019-02-17T03:21:06.729Z,-1.40
2019-02-17T03:23:37.088Z,-1.38
2019-02-17T03:26:07.591Z,-1.37
2019-02-17T03:28:37.915Z,-1.35
2019-02-17T03:31:08.345Z,-1.37
2019-02-17T03:33:38.801Z,-1.35
2019-02-17T03:36:09.166Z,-1.35
2019-02-17T03:38:39.509Z,-1.38
2019-02-17T03:41:10.052Z,-1.43
2019-02-17T03:43:40.724Z,-1.46
2019-02-17T03:46:11.248Z,-1.43
2019-02-17T03:48:41.801Z,-1.44
2019-02-17T03:51:12.560Z,-1.39
2019-02-17T03:53:42.973Z,-1.37
2019-02-17T03:56:13.343Z,-1.33
2019-02-17T03:58:43.755Z,-1.35
2019-02-17T04:01:14.204Z,-1.37
2019-02-17T04:03:44.711Z,-1.38
2019-02-17T04:06:15.173Z,-1.40
2019-02-17T04:08:45.643Z,-1.43
2019-02-17T04:11:16.046Z,-1.45
2019-02-17T04:13:46.596Z,-1.46
2019-02-17T04:16:17.060Z,-1.44
2019-02-17T04:18:47.526Z,-1.50
2019-02-17T04:21:18.031Z,-1.53
2019-02-17T04:23:48.485Z,-1.53
2019-02-17T04:26:18.869Z,-1.60
2019-02-17T04:28:49.280Z,-1.64
2019-02-17T04:31:19.855Z,-1.65
2019-02-17T04:33:50.343Z,-1.67
2019-02-17T04:36:20.831Z,-1.71
2019-02-17T04:38:51.369Z,-1.71
2019-02-17T04:41:21.812Z,-1.69
2019-02-17T04:43:52.384Z,-1.70
2019-02-17T04:46:22.731Z,-1.70
2019-02-17T04:48:53.100Z,-1.73
2019-02-17T04:51:23.656Z,-1.73
2019-02-17T04:53:54.066Z,-1.74
2019-02-17T04:56:24.505Z,-1.77
2019-02-17T04:58:54.943Z,-1.75
2019-02-17T05:01:25.416Z,-1.82
2019-02-17T05:03:55.929Z,-1.82
2019-02-17T05:06:26.371Z,-1.83
2019-02-17T05:08:57.895Z,-1.89
2019-02-17T05:11:28.291Z,-1.91
2019-02-17T05:13:58.798Z,-1.97
2019-02-17T05:16:29.224Z,-1.94
2019-02-17T05:18:59.604Z,-1.92
2019-02-17T05:21:29.986Z,-1.91
2019-02-17T05:24:00.426Z,-1.89
2019-02-17T05:26:30.876Z,-1.87
2019-02-17T05:29:01.249Z,-1.85
2019-02-17T05:31:31.664Z,-1.92
2019-02-17T05:34:02.167Z,-2.00
2019-02-17T05:36:32.544Z,-2.00
2019-02-17T05:39:04.791Z,-1.97
2019-02-17T05:41:35.315Z,-1.94
2019-02-17T05:44:05.771Z,-1.93
2019-02-17T05:46:36.255Z,-1.97
2019-02-17T05:49:06.669Z,-1.99
2019-02-17T05:51:37.197Z,-2.03
2019-02-17T05:54:07.560Z,-2.02
2019-02-17T05:56:38.068Z,-2.02
2019-02-17T05:59:08.618Z,-2.02
2019-02-17T06:01:39.127Z,-2.04
2019-02-17T06:04:09.629Z,-2.07
2019-02-17T06:06:40.235Z,-2.12
2019-02-17T06:09:10.711Z,-2.14
2019-02-17T06:11:41.030Z,-2.15
2019-02-17T06:14:11.477Z,-2.15
2019-02-17T06:16:41.981Z,-2.14
2019-02-17T06:19:12.400Z,-2.13
2019-02-17T06:21:42.906Z,-2.12
2019-02-17T06:24:13.357Z,-2.12
2019-02-17T06:26:43.786Z,-2.11
2019-02-17T06:29:14.284Z,-2.14
2019-02-17T06:31:44.825Z,-2.14
2019-02-17T06:34:19.688Z,-2.16
2019-02-17T06:36:50.181Z,-2.15
2019-02-17T06:39:20.694Z,-2.12
2019-02-17T06:41:51.152Z,-2.14
2019-02-17T06:44:21.624Z,-2.15
2019-02-17T06:46:56.375Z,-2.19
2019-02-17T06:49:26.796Z,-2.18
2019-02-17T06:51:57.133Z,-2.15
2019-02-17T06:54:27.605Z,-2.10
2019-02-17T06:57:05.135Z,-2.02
2019-02-17T06:59:35.545Z,-1.97
2019-02-17T07:02:05.970Z,-1.92
2019-02-17T07:05:01.164Z,-1.88
2019-02-17T07:07:31.811Z,-1.85
2019-02-17T07:10:02.257Z,-1.79
2019-02-17T07:12:32.729Z,-1.74
2019-02-17T07:15:03.151Z,-1.69
2019-02-17T07:17:33.664Z,-1.63
2019-02-17T07:20:04.365Z,-1.60
2019-02-17T07:22:34.733Z,-1.56
2019-02-17T07:25:05.247Z,-1.53
2019-02-17T07:27:35.602Z,-1.48
2019-02-17T07:30:06.128Z,-1.41
2019-02-17T07:32:36.513Z,-1.35
2019-02-17T07:35:07.167Z,-1.28
2019-02-17T07:37:37.656Z,-1.22
2019-02-17T07:40:08.437Z,-1.13
2019-02-17T07:42:38.829Z,-1.04
2019-02-17T07:45:09.607Z,-0.95
2019-02-17T07:47:40.024Z,-0.86
2019-02-17T07:50:10.731Z,-0.67
2019-02-17T07:52:41.122Z,-0.54
2019-02-17T07:55:11.677Z,-0.51
2019-02-17T07:57:42.107Z,-0.47
2019-02-17T08:00:13.279Z,-0.40
2019-02-17T08:02:43.718Z,-0.35
2019-02-17T08:05:14.151Z,-0.26
2019-02-17T08:07:44.715Z,-0.16
2019-02-17T08:10:15.193Z,-0.04
2019-02-17T08:12:45.644Z,0.09
2019-02-17T08:15:16.216Z,0.25
2019-02-17T08:17:46.665Z,0.41
2019-02-17T08:20:17.117Z,0.53
2019-02-17T08:22:47.464Z,0.68
2019-02-17T08:25:21.863Z,0.89
2019-02-17T08:27:50.237Z,1.22
2019-02-17T08:30:20.718Z,1.52
2019-02-17T08:32:51.024Z,1.83
2019-02-17T08:35:21.383Z,2.21
2019-02-17T08:37:51.898Z,3.02
2019-02-17T08:40:22.311Z,5.02
2019-02-17T08:42:52.727Z,7.03
2019-02-17T08:45:23.139Z,8.65
2019-02-17T08:47:53.608Z,10.03
2019-02-17T08:50:23.979Z,11.02
2019-02-17T08:52:54.414Z,11.71
2019-02-17T08:55:24.905Z,12.09
2019-02-17T08:57:55.398Z,12.38
2019-02-17T09:00:25.871Z,12.87
2019-02-17T09:02:56.221Z,12.96
2019-02-17T09:05:26.664Z,13.02
2019-02-17T09:07:57.119Z,13.23
2019-02-17T09:10:27.518Z,13.50
2019-02-17T09:12:57.949Z,13.75
2019-02-17T09:15:28.271Z,14.05
2019-02-17T09:17:58.575Z,14.04
2019-02-17T09:20:28.987Z,13.90
2019-02-17T09:22:59.425Z,13.89
2019-02-17T09:25:29.843Z,13.84
2019-02-17T09:28:00.408Z,13.85
2019-02-17T09:30:30.862Z,13.75
2019-02-17T09:33:01.296Z,13.82
2019-02-17T09:35:31.753Z,13.72
2019-02-17T09:38:02.194Z,13.81
2019-02-17T09:40:32.723Z,13.64
2019-02-17T09:43:03.149Z,14.24
2019-02-17T09:45:33.569Z,14.52
2019-02-17T09:48:03.993Z,14.65
2019-02-17T09:50:34.372Z,14.21
2019-02-17T09:53:04.796Z,14.04
2019-02-17T09:55:35.199Z,14.18
2019-02-17T09:58:05.685Z,14.25
2019-02-17T10:00:36.106Z,13.93
2019-02-17T10:03:06.533Z,14.33
2019-02-17T10:05:36.894Z,14.88
2019-02-17T10:08:07.350Z,14.77
2019-02-17T10:10:37.843Z,15.17
2019-02-17T10:13:08.238Z,15.10
2019-02-17T10:15:38.568Z,15.36
2019-02-17T10:18:08.901Z,15.53
2019-02-17T10:20:39.425Z,14.99
2019-02-17T10:23:09.817Z,15.08
2019-02-17T10:25:40.304Z,14.95
2019-02-17T10:28:10.789Z,14.90
2019-02-17T10:30:41.222Z,14.71
2019-02-17T10:33:11.635Z,14.52
2019-02-17T10:35:42.073Z,14.05
2019-02-17T10:38:12.578Z,13.88
2019-02-17T10:40:42.995Z,13.28
2019-02-17T10:43:13.428Z,13.09
2019-02-17T10:45:43.896Z,12.52
2019-02-17T10:48:14.323Z,12.24
2019-02-17T10:50:44.707Z,11.92
2019-02-17T10:53:15.165Z,11.53
2019-02-17T10:55:45.597Z,11.19
2019-02-17T10:58:16.084Z,10.91
2019-02-17T11:00:46.521Z,10.51
2019-02-17T11:03:16.931Z,10.29
2019-02-17T11:05:47.680Z,10.17
2019-02-17T11:08:18.111Z,10.06
2019-02-17T11:10:48.625Z,9.99
2019-02-17T11:13:19.033Z,9.98
2019-02-17T11:15:49.474Z,10.05
2019-02-17T11:18:19.776Z,10.04
2019-02-17T11:20:50.242Z,10.14
2019-02-17T11:23:21.184Z,10.29
2019-02-17T11:25:52.376Z,10.47
2019-02-17T11:28:22.801Z,10.52
2019-02-17T11:30:53.864Z,10.62
2019-02-17T11:33:24.295Z,10.72
2019-02-17T11:35:55.265Z,10.67
2019-02-17T11:38:26.098Z,10.71
2019-02-17T11:40:56.438Z,10.65
2019-02-17T11:43:27.246Z,10.81
2019-02-17T11:45:58.100Z,10.86
2019-02-17T11:48:28.588Z,10.94
2019-02-17T11:50:59.121Z,11.01
2019-02-17T11:53:29.630Z,11.11
2019-02-17T11:56:00.169Z,11.18
2019-02-17T11:58:30.600Z,11.52
2019-02-17T12:01:01.038Z,11.46
2019-02-17T12:03:31.498Z,11.53
2019-02-17T12:06:01.908Z,11.77
2019-02-17T12:08:32.403Z,12.32
2019-02-17T12:11:02.865Z,12.78
2019-02-17T12:13:33.223Z,13.27
2019-02-17T12:16:03.770Z,13.95
2019-02-17T12:18:34.095Z,15.01
2019-02-17T12:21:24.006Z,16.25
2019-02-17T12:24:11.580Z,17.36
2019-02-17T12:26:52.127Z,18.41
2019-02-17T12:29:33.029Z,19.32
2019-02-17T12:32:03.543Z,19.84
2019-02-17T12:34:34.016Z,20.32
2019-02-17T12:37:04.492Z,20.96
2019-02-17T12:39:34.966Z,21.64
2019-02-17T12:42:05.483Z,21.70
2019-02-17T12:44:35.970Z,21.29
2019-02-17T12:47:06.395Z,21.40
2019-02-17T12:49:36.736Z,21.11
2019-02-17T12:52:07.180Z,20.72
2019-02-17T12:54:37.569Z,21.14
2019-02-17T12:57:07.979Z,20.31
2019-02-17T12:59:38.698Z,20.32
2019-02-17T13:02:09.144Z,20.44
2019-02-17T13:04:39.606Z,20.36
2019-02-17T13:07:10.004Z,20.57
2019-02-17T13:09:40.480Z,20.75
2019-02-17T13:12:10.920Z,20.17
2019-02-17T13:14:41.436Z,20.05
2019-02-17T13:17:11.859Z,20.20
2019-02-17T13:19:42.303Z,19.97
2019-02-17T13:22:12.801Z,20.29
2019-02-17T13:24:43.142Z,19.92
2019-02-17T13:27:15.528Z,20.09
2019-02-17T13:29:45.521Z,19.62
2019-02-17T13:32:15.967Z,18.61
2019-02-17T13:34:46.654Z,17.74
2019-02-17T13:37:17.055Z,17.06
2019-02-17T13:39:47.441Z,16.31
2019-02-17T13:42:17.820Z,15.68
2019-02-17T13:44:48.291Z,15.29
2019-02-17T13:47:18.814Z,14.84
2019-02-17T13:49:49.280Z,14.61
2019-02-17T13:52:19.661Z,14.36
2019-02-17T13:54:50.078Z,14.00
2019-02-17T13:57:20.559Z,13.80
2019-02-17T13:59:50.986Z,13.62
2019-02-17T14:02:21.301Z,13.37
2019-02-17T14:04:51.743Z,13.19
2019-02-17T14:07:22.271Z,13.18
2019-02-17T14:09:52.737Z,13.20
2019-02-17T14:12:23.110Z,13.10
2019-02-17T14:14:53.469Z,12.92
2019-02-17T14:17:23.878Z,12.85
2019-02-17T14:19:54.345Z,12.81
2019-02-17T14:22:24.749Z,12.78
2019-02-17T14:24:55.253Z,12.79
2019-02-17T14:27:25.642Z,12.82
2019-02-17T14:29:55.985Z,12.79
2019-02-17T14:32:26.419Z,12.87
2019-02-17T14:34:56.719Z,12.84
2019-02-17T14:37:27.251Z,12.71
2019-02-17T14:39:57.695Z,12.72
2019-02-17T14:42:28.126Z,12.70
2019-02-17T14:44:58.437Z,12.64
2019-02-17T14:47:28.890Z,12.66
2019-02-17T14:49:59.254Z,12.60
2019-02-17T14:52:29.678Z,12.55
2019-02-17T14:55:00.050Z,12.42
2019-02-17T14:57:30.421Z,12.41
2019-02-17T15:00:00.874Z,12.39
2019-02-17T15:02:31.240Z,12.40
2019-02-17T15:05:01.714Z,12.31
2019-02-17T15:07:32.231Z,12.18
2019-02-17T15:10:02.600Z,12.14
2019-02-17T15:12:33.065Z,12.09
2019-02-17T15:15:03.532Z,12.09
2019-02-17T15:17:33.814Z,12.10
2019-02-17T15:20:04.559Z,11.91
2019-02-17T15:22:35.047Z,11.93
2019-02-17T15:25:07.406Z,11.96
2019-02-17T15:27:38.001Z,11.89
2019-02-17T15:30:11.164Z,11.86
2019-02-17T15:32:41.611Z,11.76
2019-02-17T15:35:12.050Z,11.65
2019-02-17T15:37:42.593Z,11.62
2019-02-17T15:40:13.354Z,11.56
2019-02-17T15:42:43.997Z,11.49
2019-02-17T15:45:14.834Z,11.39
2019-02-17T15:47:45.253Z,11.33
2019-02-17T15:50:16.065Z,11.24
2019-02-17T15:52:46.586Z,11.17
2019-02-17T15:55:17.062Z,11.02
2019-02-17T15:57:49.054Z,11.02
2019-02-17T16:00:19.679Z,11.06
2019-02-17T16:02:50.145Z,10.95
2019-02-17T16:05:20.652Z,10.89
2019-02-17T16:07:54.635Z,10.67
2019-02-17T16:10:27.393Z,10.74
2019-02-17T16:12:57.831Z,10.56
2019-02-17T16:15:28.174Z,10.58
2019-02-17T16:17:58.699Z,10.53
2019-02-17T16:20:29.134Z,10.40
2019-02-17T16:22:59.629Z,10.27
2019-02-17T16:25:30.168Z,10.06
2019-02-17T16:28:00.720Z,9.86
2019-02-17T16:30:31.216Z,9.68
2019-02-17T16:33:01.644Z,9.48
2019-02-17T16:35:32.124Z,9.32
2019-02-17T16:38:02.534Z,9.22
2019-02-17T16:40:33.107Z,9.09
2019-02-17T16:43:03.581Z,8.96
2019-02-17T16:45:34.137Z,8.84
2019-02-17T16:48:04.597Z,8.70
2019-02-17T16:50:35.042Z,8.57
2019-02-17T16:53:06.725Z,8.57
2019-02-17T16:55:37.172Z,8.50
2019-02-17T16:58:07.888Z,8.45
2019-02-17T17:00:38.925Z,8.39
2019-02-17T17:03:09.542Z,8.30
2019-02-17T17:05:40.169Z,8.22
2019-02-17T17:08:11.538Z,8.12
2019-02-17T17:10:42.071Z,7.97
2019-02-17T17:13:12.682Z,7.83
2019-02-17T17:15:43.189Z,7.69
2019-02-17T17:18:13.721Z,7.54
2019-02-17T17:20:45.264Z,7.42
2019-02-17T17:23:15.812Z,7.32
2019-02-17T17:25:46.249Z,7.17
2019-02-17T17:28:16.839Z,7.01
2019-02-17T17:30:48.217Z,6.89
2019-02-17T17:33:18.810Z,6.81
2019-02-17T17:35:49.436Z,6.66
2019-02-17T17:38:20.003Z,6.57
2019-02-17T17:40:50.452Z,6.44
2019-02-17T17:43:22.167Z,6.31
2019-02-17T17:45:53.116Z,6.17
2019-02-17T17:48:24.643Z,6.07
2019-02-17T17:50:55.360Z,5.96
2019-02-17T17:53:28.973Z,5.86
2019-02-17T17:55:59.440Z,5.77
2019-02-17T17:58:29.976Z,5.67
2019-02-17T18:01:00.506Z,5.61
2019-02-17T18:03:30.848Z,5.56
2019-02-17T18:06:01.565Z,5.45
2019-02-17T18:08:32.590Z,5.41
2019-02-17T18:11:03.242Z,5.27
2019-02-17T18:13:33.663Z,5.18
2019-02-17T18:16:04.091Z,5.06
2019-02-17T18:18:34.461Z,4.94
2019-02-17T18:21:04.898Z,4.87
2019-02-17T18:23:35.373Z,4.80
2019-02-17T18:26:05.805Z,4.78
2019-02-17T18:28:36.270Z,4.70
2019-02-17T18:31:06.683Z,4.66
2019-02-17T18:33:37.482Z,4.60
2019-02-17T18:36:07.885Z,4.54
2019-02-17T18:38:38.524Z,4.49
2019-02-17T18:41:09.001Z,4.39
2019-02-17T18:43:39.340Z,4.30
2019-02-17T18:46:09.911Z,4.24
2019-02-17T18:48:40.433Z,4.18
2019-02-17T18:51:11.097Z,4.18
2019-02-17T18:53:41.546Z,4.13
2019-02-17T18:56:12.074Z,4.09
2019-02-17T18:58:43.028Z,4.03
2019-02-17T19:01:13.663Z,3.97
2019-02-17T19:03:44.129Z,3.92
2019-02-17T19:06:14.554Z,3.85
2019-02-17T19:08:45.093Z,3.77
2019-02-17T19:11:18.631Z,3.77
2019-02-17T19:13:47.890Z,3.75
2019-02-17T19:16:19.970Z,3.68
2019-02-17T19:18:53.420Z,3.62
2019-02-17T19:21:24.216Z,3.50
2019-02-17T19:23:55.774Z,3.48
2019-02-17T19:26:26.273Z,3.39
2019-02-17T19:28:56.649Z,3.34
2019-02-17T19:31:38.881Z,3.28
2019-02-17T19:34:15.726Z,3.28
2019-02-17T19:36:46.232Z,3.19
2019-02-17T19:39:16.633Z,3.17
2019-02-17T19:41:47.119Z,3.05
2019-02-17T19:44:17.617Z,3.03
2019-02-17T19:46:49.877Z,3.02
2019-02-17T19:49:21.002Z,2.95
2019-02-17T19:51:52.128Z,2.89
2019-02-17T19:54:25.963Z,2.85
2019-02-17T19:57:00.943Z,2.71
2019-02-17T19:59:31.753Z,2.64
2019-02-17T20:02:03.726Z,2.66
2019-02-17T20:04:42.693Z,2.63
2019-02-17T20:07:16.541Z,2.63
2019-02-17T20:09:54.008Z,2.60
2019-02-17T20:12:27.963Z,2.60
2019-02-17T20:15:04.467Z,2.57
2019-02-17T20:17:40.863Z,2.52
2019-02-17T20:20:14.137Z,2.51
2019-02-17T20:22:47.319Z,2.43
2019-02-17T20:25:21.375Z,2.46
2019-02-17T20:27:53.055Z,2.43
2019-02-17T20:30:23.566Z,2.36
2019-02-17T20:32:53.876Z,2.27
2019-02-17T20:35:24.439Z,2.26
2019-02-17T20:37:54.856Z,2.25
2019-02-17T20:40:25.281Z,2.18
2019-02-17T20:42:55.706Z,2.17
2019-02-17T20:45:26.264Z,2.09
2019-02-17T20:47:56.729Z,2.04
2019-02-17T20:50:27.175Z,1.97
2019-02-17T20:52:57.704Z,1.96
2019-02-17T20:55:28.160Z,1.95
2019-02-17T20:57:58.778Z,1.95
2019-02-17T21:00:29.460Z,1.93
2019-02-17T21:02:59.870Z,1.84
2019-02-17T21:05:30.233Z,1.78
2019-02-17T21:08:00.699Z,1.84
2019-02-17T21:10:31.059Z,1.81
2019-02-17T21:13:01.357Z,1.83
2019-02-17T21:15:32.067Z,1.83
2019-02-17T21:18:02.499Z,1.76
2019-02-17T21:20:34.323Z,1.68
2019-02-17T21:23:04.964Z,1.57
2019-02-17T21:25:35.379Z,1.53
2019-02-17T21:28:07.312Z,1.51
2019-02-17T21:30:39.800Z,1.53
2019-02-17T21:33:11.899Z,1.56
2019-02-17T21:35:44.600Z,1.61
2019-02-17T21:38:17.156Z,1.57
2019-02-17T21:40:47.661Z,1.51
2019-02-17T21:43:18.130Z,1.40
2019-02-17T21:45:48.564Z,1.35
2019-02-17T21:48:18.947Z,1.35
2019-02-17T21:50:49.367Z,1.37
2019-02-17T21:53:20.781Z,1.37
2019-02-17T21:55:51.461Z,1.33
2019-02-17T21:58:21.808Z,1.36
2019-02-17T22:00:52.283Z,1.27
2019-02-17T22:03:22.863Z,1.33
2019-02-17T22:05:53.297Z,1.33
2019-02-17T22:08:23.765Z,1.28
2019-02-17T22:10:54.790Z,1.26
2019-02-17T22:13:25.222Z,1.20
2019-02-17T22:15:55.659Z,1.15
2019-02-17T22:18:26.299Z,1.11
2019-02-17T22:20:56.728Z,1.03
2019-02-17T22:23:27.157Z,0.95
2019-02-17T22:25:57.584Z,0.98
2019-02-17T22:28:28.256Z,0.96
2019-02-17T22:30:58.760Z,0.92
2019-02-17T22:33:29.187Z,0.91
2019-02-17T22:35:59.695Z,0.89
2019-02-17T22:38:30.192Z,0.87
2019-02-17T22:41:00.631Z,0.84
2019-02-17T22:43:31.051Z,0.79
2019-02-17T22:46:01.544Z,0.76
2019-02-17T22:48:32.009Z,0.73
2019-02-17T22:51:02.453Z,0.70
2019-02-17T22:53:43.075Z,0.67
2019-02-17T22:56:05.038Z,0.68
2019-02-17T22:58:35.595Z,0.64
2019-02-17T23:01:10.838Z,0.61
2019-02-17T23:03:41.308Z,0.56
2019-02-17T23:06:11.882Z,0.56
2019-02-17T23:08:42.395Z,0.54
2019-02-17T23:11:12.833Z,0.51
2019-02-17T23:13:43.337Z,0.49
2019-02-17T23:16:13.792Z,0.41
2019-02-17T23:18:44.678Z,0.40
2019-02-17T23:21:15.193Z,0.40
2019-02-17T23:23:45.521Z,0.39
2019-02-17T23:26:15.909Z,0.35
2019-02-17T23:28:46.573Z,0.30
2019-02-17T23:31:21.288Z,0.27
2019-02-17T23:33:51.604Z,0.26
2019-02-17T23:36:22.036Z,0.23
2019-02-17T23:38:52.531Z,0.15
2019-02-17T23:41:22.793Z,0.15
2019-02-17T23:43:53.196Z,0.09
2019-02-17T23:46:23.625Z,0.15
2019-02-17T23:48:54.057Z,0.14
2019-02-17T23:51:24.538Z,0.14
2019-02-17T23:53:54.973Z,0.13
2019-02-17T23:56:25.434Z,0.08
2019-02-17T23:58:55.853Z,0.05
